createdAt,value
2022-11-16T00:00:17.399Z,98945.25
2022-11-16T00:01:19.923Z,98936.50
2022-11-16T00:02:21.553Z,98951.84
2022-11-16T00:03:23.576Z,98948.34
2022-11-16T00:04:25.139Z,98937.09
2022-11-16T00:05:28.672Z,98944.16
2022-11-16T00:06:32.994Z,98947.50
2022-11-16T00:07:34.586Z,98942.38
2022-11-16T00:08:37.074Z,98945.69
2022-11-16T00:09:44.617Z,98941.41
2022-11-16T00:10:46.239Z,98933.81
2022-11-16T00:11:57.059Z,98945.03
2022-11-16T00:13:03.551Z,98938.78
2022-11-16T00:14:05.154Z,98936.63
2022-11-16T00:15:07.023Z,98934.47
2022-11-16T00:16:08.826Z,98936.13
2022-11-16T00:17:10.287Z,98930.69
2022-11-16T00:18:11.784Z,98932.03
2022-11-16T00:19:13.284Z,98932.53
2022-11-16T00:20:14.924Z,98936.34
2022-11-16T00:21:16.361Z,98934.53
2022-11-16T00:22:17.897Z,98931.50
2022-11-16T00:23:19.363Z,98936.13
2022-11-16T00:24:22.481Z,98931.66
2022-11-16T00:25:26.655Z,98923.91
2022-11-16T00:26:28.112Z,98910.66
2022-11-16T00:27:29.724Z,98923.59
2022-11-16T00:28:31.450Z,98915.19
2022-11-16T00:29:33.158Z,98916.00
2022-11-16T00:30:34.680Z,98912.03
2022-11-16T00:31:39.090Z,98917.00
2022-11-16T00:32:48.664Z,98907.44
2022-11-16T00:33:56.457Z,98904.97
2022-11-16T00:34:57.949Z,98909.75
2022-11-16T00:36:02.963Z,98916.00
2022-11-16T00:37:04.436Z,98914.34
2022-11-16T00:38:06.155Z,98900.66
2022-11-16T00:39:07.715Z,98910.22
2022-11-16T00:40:09.617Z,98911.16
2022-11-16T00:41:13.183Z,98910.66
2022-11-16T00:42:17.069Z,98915.63
2022-11-16T00:43:19.293Z,98912.50
2022-11-16T00:44:20.955Z,98915.81
2022-11-16T00:45:22.491Z,98905.94
2022-11-16T00:46:23.962Z,98902.25
2022-11-16T00:47:26.541Z,98903.41
2022-11-16T00:48:28.244Z,98909.53
2022-11-16T00:49:32.676Z,98904.41
2022-11-16T00:50:36.530Z,98905.72
2022-11-16T00:51:38.620Z,98907.19
2022-11-16T00:52:43.446Z,98904.88
2022-11-16T00:53:47.412Z,98910.66
2022-11-16T00:54:48.974Z,98905.06
2022-11-16T00:55:53.532Z,98906.72
2022-11-16T00:56:57.755Z,98904.25
2022-11-16T00:58:07.749Z,98898.47
2022-11-16T00:59:09.269Z,98911.31
2022-11-16T01:00:11.337Z,98905.06
2022-11-16T01:01:12.932Z,98905.22
2022-11-16T01:02:21.804Z,98898.47
2022-11-16T01:03:23.357Z,98901.38
2022-11-16T01:04:24.811Z,98901.38
2022-11-16T01:05:26.341Z,98905.66
2022-11-16T01:06:30.769Z,98907.00
2022-11-16T01:07:39.280Z,98902.84
2022-11-16T01:08:40.823Z,98907.28
2022-11-16T01:09:43.234Z,98905.00
2022-11-16T01:10:50.618Z,98905.00
2022-11-16T01:12:10.465Z,98899.38
2022-11-16T01:13:12.446Z,98901.03
2022-11-16T01:14:20.155Z,98899.38
2022-11-16T01:15:22.358Z,98904.66
2022-11-16T01:16:23.784Z,98893.13
2022-11-16T01:17:27.534Z,98898.72
2022-11-16T01:18:38.245Z,98890.81
2022-11-16T01:19:39.735Z,98891.47
2022-11-16T01:20:43.773Z,98884.03
2022-11-16T01:21:45.299Z,98890.97
2022-11-16T01:22:46.808Z,98886.38
2022-11-16T01:23:48.291Z,98886.69
2022-11-16T01:24:49.801Z,98885.88
2022-11-16T01:26:11.823Z,98877.78
2022-11-16T01:27:14.997Z,98893.78
2022-11-16T01:28:19.265Z,98898.22
2022-11-16T01:29:25.157Z,98891.47
2022-11-16T01:30:31.286Z,98892.63
2022-11-16T01:31:53.075Z,98896.19
2022-11-16T01:32:54.552Z,98891.75
2022-11-16T01:33:56.032Z,98895.88
2022-11-16T01:35:01.121Z,98893.56
2022-11-16T01:36:09.620Z,98899.88
2022-11-16T01:37:11.362Z,98889.50
2022-11-16T01:38:15.469Z,98889.00
2022-11-16T01:39:16.940Z,98890.16
2022-11-16T01:40:23.819Z,98890.47
2022-11-16T01:41:25.557Z,98892.97
2022-11-16T01:42:30.556Z,98893.78
2022-11-16T01:43:49.116Z,98890.97
2022-11-16T01:44:50.775Z,98884.03
2022-11-16T01:45:53.416Z,98887.97
2022-11-16T01:47:01.144Z,98899.66
2022-11-16T01:48:09.515Z,98893.88
2022-11-16T01:49:12.313Z,98888.94
2022-11-16T01:50:14.782Z,98894.03
2022-11-16T01:51:19.324Z,98891.75
2022-11-16T01:52:23.063Z,98882.19
2022-11-16T01:53:32.305Z,98885.50
2022-11-16T01:54:38.854Z,98884.66
2022-11-16T01:55:41.957Z,98879.88
2022-11-16T01:57:00.440Z,98881.75
2022-11-16T01:58:21.017Z,98872.19
2022-11-16T01:59:30.035Z,98869.72
2022-11-16T02:00:32.323Z,98875.50
2022-11-16T02:01:51.437Z,98873.78
2022-11-16T02:02:53.995Z,98883.00
2022-11-16T02:04:21.698Z,98874.59
2022-11-16T02:05:30.936Z,98873.56
2022-11-16T02:06:37.411Z,98882.56
2022-11-16T02:08:22.982Z,98873.78
2022-11-16T02:10:02.366Z,98876.16
2022-11-16T02:11:17.305Z,98884.03
2022-11-16T02:12:39.068Z,98876.47
2022-11-16T02:13:48.181Z,98872.78
2022-11-16T02:14:49.799Z,98872.41
2022-11-16T02:16:01.869Z,98869.09
2022-11-16T02:17:13.755Z,98866.19
2022-11-16T02:18:16.254Z,98872.13
2022-11-16T02:19:25.461Z,98861.63
2022-11-16T02:20:45.478Z,98863.78
2022-11-16T02:21:51.082Z,98863.47
2022-11-16T02:23:10.955Z,98861.53
2022-11-16T02:24:19.857Z,98872.91
2022-11-16T02:25:39.911Z,98868.97
2022-11-16T02:27:01.168Z,98868.97
2022-11-16T02:28:03.183Z,98870.94
2022-11-16T02:29:19.634Z,98874.16
2022-11-16T02:30:21.169Z,98872.97
2022-11-16T02:31:27.480Z,98863.22
2022-11-16T02:32:36.585Z,98871.28
2022-11-16T02:33:41.144Z,98883.91
2022-11-16T02:34:50.478Z,98884.25
2022-11-16T02:35:57.596Z,98881.50
2022-11-16T02:37:01.775Z,98880.50
2022-11-16T02:38:05.235Z,98878.38
2022-11-16T02:39:15.339Z,98883.47
2022-11-16T02:40:17.551Z,98881.81
2022-11-16T02:41:19.975Z,98881.19
2022-11-16T02:42:32.977Z,98880.03
2022-11-16T02:43:36.131Z,98882.84
2022-11-16T02:44:39.186Z,98874.16
2022-11-16T02:45:44.193Z,98879.34
2022-11-16T02:46:48.800Z,98859.34
2022-11-16T02:47:50.735Z,98874.16
2022-11-16T02:48:56.274Z,98882.22
2022-11-16T02:50:02.353Z,98875.91
2022-11-16T02:51:19.110Z,98875.72
2022-11-16T02:52:24.420Z,98880.19
2022-11-16T02:53:26.009Z,98875.59
2022-11-16T02:54:31.846Z,98870.81
2022-11-16T02:55:33.785Z,98863.78
2022-11-16T02:56:42.295Z,98864.53
2022-11-16T02:57:47.500Z,98866.50
2022-11-16T02:58:49.023Z,98867.00
2022-11-16T02:59:55.519Z,98866.69
2022-11-16T03:00:57.363Z,98862.63
2022-11-16T03:02:12.204Z,98862.81
2022-11-16T03:03:33.952Z,98858.03
2022-11-16T03:04:45.647Z,98860.19
2022-11-16T03:05:47.106Z,98854.47
2022-11-16T03:06:48.764Z,98853.81
2022-11-16T03:08:25.748Z,98855.63
2022-11-16T03:09:27.905Z,98847.72
2022-11-16T03:10:48.056Z,98839.16
2022-11-16T03:12:08.778Z,98853.03
2022-11-16T03:13:10.668Z,98849.28
2022-11-16T03:14:14.512Z,98846.97
2022-11-16T03:15:19.353Z,98835.44
2022-11-16T03:16:22.350Z,98837.63
2022-11-16T03:17:29.853Z,98839.28
2022-11-16T03:18:41.100Z,98832.56
2022-11-16T03:19:51.989Z,98834.22
2022-11-16T03:21:06.596Z,98836.69
2022-11-16T03:22:11.366Z,98840.47
2022-11-16T03:23:27.624Z,98836.34
2022-11-16T03:24:29.176Z,98845.91
2022-11-16T03:25:31.593Z,98845.53
2022-11-16T03:26:55.219Z,98852.09
2022-11-16T03:28:19.075Z,98861.31
2022-11-16T03:29:23.680Z,98859.00
2022-11-16T03:30:27.227Z,98860.03
2022-11-16T03:31:35.854Z,98867.94
2022-11-16T03:32:42.987Z,98872.50
2022-11-16T03:33:51.425Z,98864.44
2022-11-16T03:34:56.315Z,98873.78
2022-11-16T03:36:02.055Z,98871.50
2022-11-16T03:37:10.163Z,98881.03
2022-11-16T03:38:11.619Z,98872.13
2022-11-16T03:39:28.668Z,98880.41
2022-11-16T03:40:30.908Z,98878.94
2022-11-16T03:41:33.046Z,98880.41
2022-11-16T03:42:34.619Z,98876.97
2022-11-16T03:43:38.612Z,98876.47
2022-11-16T03:44:40.192Z,98878.63
2022-11-16T03:45:43.234Z,98871.25
2022-11-16T03:46:53.817Z,98875.53
2022-11-16T03:48:00.383Z,98883.59
2022-11-16T03:49:02.017Z,98882.91
2022-11-16T03:50:08.309Z,98882.41
2022-11-16T03:51:10.012Z,98881.41
2022-11-16T03:52:26.403Z,98879.66
2022-11-16T03:53:28.354Z,98878.50
2022-11-16T03:54:32.903Z,98885.38
2022-11-16T03:55:37.387Z,98880.41
2022-11-16T03:56:38.845Z,98883.72
2022-11-16T03:57:41.384Z,98887.69
2022-11-16T03:58:42.987Z,98894.59
2022-11-16T03:59:45.908Z,98888.00
2022-11-16T04:01:00.178Z,98893.53
2022-11-16T04:02:03.098Z,98891.50
2022-11-16T04:03:05.996Z,98893.09
2022-11-16T04:04:30.391Z,98894.03
2022-11-16T04:05:53.991Z,98879.75
2022-11-16T04:08:53.225Z,98888.31
2022-11-16T04:10:13.144Z,98895.06
2022-11-16T04:13:21.411Z,98885.53
2022-11-16T04:14:48.292Z,98887.34
2022-11-16T04:18:28.271Z,98890.66
2022-11-16T04:19:58.320Z,98899.78
2022-11-16T04:21:26.588Z,98894.81
2022-11-16T04:22:57.309Z,98884.13
2022-11-16T04:24:20.609Z,98891.69
2022-11-16T04:25:23.630Z,98894.81
2022-11-16T04:26:47.995Z,98889.22
2022-11-16T04:28:10.222Z,98906.84
2022-11-16T04:29:16.380Z,98895.44
2022-11-16T04:30:19.415Z,98899.38
2022-11-16T04:31:39.880Z,98897.88
2022-11-16T04:33:02.838Z,98903.66
2022-11-16T04:34:25.289Z,98899.38
2022-11-16T04:35:48.624Z,98900.44
2022-11-16T04:37:30.639Z,98904.22
2022-11-16T04:38:35.203Z,98900.59
2022-11-16T04:39:37.750Z,98908.19
2022-11-16T04:40:40.282Z,98903.22
2022-11-16T04:42:12.111Z,98901.88
2022-11-16T04:43:16.465Z,98909.13
2022-11-16T04:44:29.787Z,98905.00
2022-11-16T04:45:56.264Z,98914.34
2022-11-16T04:47:07.513Z,98906.47
2022-11-16T04:48:18.758Z,98909.69
2022-11-16T04:49:26.526Z,98913.13
2022-11-16T04:50:30.405Z,98902.16
2022-11-16T04:51:33.366Z,98899.34
2022-11-16T04:52:36.165Z,98896.72
2022-11-16T04:53:39.095Z,98908.44
2022-11-16T04:54:55.453Z,98903.16
2022-11-16T04:56:03.101Z,98901.50
2022-11-16T04:58:23.640Z,98909.50
2022-11-16T04:59:27.833Z,98902.44
2022-11-16T05:00:32.406Z,98906.38
2022-11-16T05:02:00.526Z,98908.34
2022-11-16T05:03:03.601Z,98902.75
2022-11-16T05:04:12.531Z,98907.03
2022-11-16T05:05:14.357Z,98909.63
2022-11-16T05:06:20.585Z,98906.53
2022-11-16T05:07:23.017Z,98903.72
2022-11-16T05:09:46.416Z,98898.00
2022-11-16T05:10:52.549Z,98902.31
2022-11-16T05:11:54.579Z,98902.19
2022-11-16T05:13:09.804Z,98902.06
2022-11-16T05:14:11.347Z,98910.97
2022-11-16T05:15:19.731Z,98911.47
2022-11-16T05:16:26.663Z,98915.75
2022-11-16T05:17:28.173Z,98908.19
2022-11-16T05:18:37.804Z,98912.94
2022-11-16T05:20:02.141Z,98907.47
2022-11-16T05:21:07.997Z,98916.56
2022-11-16T05:22:12.409Z,98916.06
2022-11-16T05:23:33.853Z,98916.56
2022-11-16T05:24:42.431Z,98910.66
2022-11-16T05:25:43.950Z,98898.63
2022-11-16T05:26:46.427Z,98903.06
2022-11-16T05:27:56.194Z,98903.91
2022-11-16T05:29:03.074Z,98899.78
2022-11-16T05:30:05.247Z,98899.28
2022-11-16T05:31:09.944Z,98903.22
2022-11-16T05:32:11.967Z,98908.31
2022-11-16T05:33:16.447Z,98915.25
2022-11-16T05:34:18.081Z,98907.16
2022-11-16T05:35:20.313Z,98905.50
2022-11-16T05:36:29.890Z,98906.75
2022-11-16T05:37:31.694Z,98910.91
2022-11-16T05:38:33.586Z,98916.31
2022-11-16T05:39:41.642Z,98914.84
2022-11-16T05:40:44.476Z,98912.19
2022-11-16T05:41:46.369Z,98913.00
2022-11-16T05:42:49.422Z,98923.47
2022-11-16T05:43:52.532Z,98918.09
2022-11-16T05:46:14.354Z,98919.09
2022-11-16T05:47:18.870Z,98922.53
2022-11-16T05:48:20.487Z,98925.34
2022-11-16T05:49:23.173Z,98932.19
2022-11-16T05:50:39.875Z,98926.59
2022-11-16T05:51:54.565Z,98922.88
2022-11-16T05:53:00.146Z,98929.97
2022-11-16T05:54:01.968Z,98927.91
2022-11-16T05:55:03.589Z,98926.75
2022-11-16T05:56:08.493Z,98926.25
2022-11-16T05:57:13.427Z,98931.84
2022-11-16T05:58:14.872Z,98940.75
2022-11-16T05:59:24.747Z,98943.22
2022-11-16T06:00:36.534Z,98935.16
2022-11-16T06:01:41.019Z,98944.06
2022-11-16T06:02:46.020Z,98942.09
2022-11-16T06:03:55.154Z,98941.44
2022-11-16T06:04:56.808Z,98945.06
2022-11-16T06:05:58.349Z,98938.31
2022-11-16T06:07:01.973Z,98937.41
2022-11-16T06:08:07.155Z,98931.97
2022-11-16T06:09:09.418Z,98936.63
2022-11-16T06:10:12.119Z,98930.69
2022-11-16T06:11:17.861Z,98930.09
2022-11-16T06:12:19.869Z,98933.38
2022-11-16T06:13:35.113Z,98931.75
2022-11-16T06:14:40.475Z,98939.00
2022-11-16T06:16:59.620Z,98937.13
2022-11-16T06:18:01.117Z,98939.41
2022-11-16T06:19:02.646Z,98953.09
2022-11-16T06:20:04.271Z,98953.09
2022-11-16T06:21:06.117Z,98944.69
2022-11-16T06:22:07.678Z,98949.16
2022-11-16T06:23:09.287Z,98947.50
2022-11-16T06:24:11.186Z,98948.03
2022-11-16T06:25:12.680Z,98949.16
2022-11-16T06:26:17.394Z,98942.94
2022-11-16T06:27:25.581Z,98945.75
2022-11-16T06:28:27.228Z,98942.44
2022-11-16T06:29:32.310Z,98944.00
2022-11-16T06:30:34.578Z,98941.97
2022-11-16T06:31:43.105Z,98943.09
2022-11-16T06:32:47.783Z,98941.44
2022-11-16T06:33:57.082Z,98949.53
2022-11-16T06:35:01.073Z,98952.97
2022-11-16T06:36:05.904Z,98946.72
2022-11-16T06:37:13.146Z,98954.19
2022-11-16T06:38:18.705Z,98950.88
2022-11-16T06:39:22.458Z,98954.19
2022-11-16T06:40:26.622Z,98947.63
2022-11-16T06:41:30.497Z,98952.09
2022-11-16T06:42:35.923Z,98959.84
2022-11-16T06:43:37.635Z,98958.69
2022-11-16T06:44:39.726Z,98965.13
2022-11-16T06:45:43.281Z,98961.00
2022-11-16T06:46:45.451Z,98964.94
2022-11-16T06:47:56.111Z,98972.84
2022-11-16T06:49:00.982Z,98970.69
2022-11-16T06:50:02.575Z,98969.84
2022-11-16T06:51:07.275Z,98969.03
2022-11-16T06:52:09.165Z,98977.53
2022-11-16T06:53:10.815Z,98978.66
2022-11-16T06:54:15.279Z,98983.13
2022-11-16T06:55:17.501Z,98981.97
2022-11-16T06:56:22.079Z,98982.50
2022-11-16T06:57:28.679Z,98986.97
2022-11-16T06:58:33.854Z,98980.72
2022-11-16T06:59:35.657Z,98989.31
2022-11-16T07:00:40.082Z,98993.09
2022-11-16T07:02:08.524Z,98995.25
2022-11-16T07:03:11.647Z,98997.09
2022-11-16T07:04:20.026Z,98997.91
2022-11-16T07:05:27.630Z,99005.16
2022-11-16T07:06:29.610Z,99004.22
2022-11-16T07:07:32.720Z,98995.19
2022-11-16T07:10:04.881Z,98995.38
2022-11-16T07:11:07.047Z,98995.59
2022-11-16T07:12:09.036Z,98991.31
2022-11-16T07:13:13.547Z,98990.69
2022-11-16T07:14:15.038Z,98992.88
2022-11-16T07:15:20.032Z,98994.53
2022-11-16T07:16:22.778Z,98991.22
2022-11-16T07:17:33.721Z,98988.91
2022-11-16T07:18:35.911Z,98992.25
2022-11-16T07:19:37.922Z,98999.81
2022-11-16T07:20:43.379Z,99003.47
2022-11-16T07:21:44.904Z,98995.56
2022-11-16T07:22:59.120Z,98991.59
2022-11-16T07:24:00.625Z,98996.56
2022-11-16T07:25:02.291Z,98994.72
2022-11-16T07:26:06.467Z,98998.03
2022-11-16T07:27:20.482Z,98998.88
2022-11-16T07:28:24.774Z,98994.91
2022-11-16T07:29:26.393Z,99002.16
2022-11-16T07:31:06.971Z,98993.94
2022-11-16T07:32:08.602Z,98999.22
2022-11-16T07:34:08.654Z,98997.25
2022-11-16T07:36:06.198Z,99005.97
2022-11-16T07:38:03.762Z,99008.28
2022-11-16T07:40:18.442Z,99006.13
2022-11-16T07:41:49.605Z,99017.34
2022-11-16T07:43:00.903Z,99011.22
2022-11-16T07:44:20.905Z,99007.38
2022-11-16T07:45:36.503Z,99013.53
2022-11-16T07:46:46.930Z,99010.06
2022-11-16T07:47:52.376Z,99022.09
2022-11-16T07:49:16.283Z,99020.63
2022-11-16T07:50:33.610Z,99022.09
2022-11-16T07:51:47.227Z,99023.56
2022-11-16T07:53:07.831Z,99018.59
2022-11-16T07:54:13.106Z,99027.53
2022-11-16T07:55:14.677Z,99028.03
2022-11-16T07:56:16.658Z,99028.53
2022-11-16T07:57:21.802Z,99028.53
2022-11-16T07:58:24.494Z,99031.03
2022-11-16T07:59:28.402Z,99038.47
2022-11-16T08:00:32.938Z,99033.50
2022-11-16T08:01:43.519Z,99036.81
2022-11-16T08:02:46.510Z,99042.91
2022-11-16T08:03:53.554Z,99045.63
2022-11-16T08:05:02.266Z,99052.56
2022-11-16T08:06:05.098Z,99049.44
2022-11-16T08:07:06.785Z,99053.56
2022-11-16T08:08:12.907Z,99060.00
2022-11-16T08:09:15.433Z,99051.59
2022-11-16T08:10:17.711Z,99050.47
2022-11-16T08:11:27.905Z,99047.34
2022-11-16T08:12:32.727Z,99048.66
2022-11-16T08:13:37.178Z,99037.47
2022-11-16T08:14:41.655Z,99051.97
2022-11-16T08:15:49.005Z,99050.81
2022-11-16T08:16:58.670Z,99046.88
2022-11-16T08:18:00.191Z,99054.13
2022-11-16T08:19:02.738Z,99054.63
2022-11-16T08:20:04.397Z,99052.66
2022-11-16T08:21:06.522Z,99058.81
2022-11-16T08:22:08.297Z,99050.91
2022-11-16T08:23:10.265Z,99051.72
2022-11-16T08:24:19.366Z,99054.53
2022-11-16T08:25:28.711Z,99055.34
2022-11-16T08:26:32.822Z,99058.66
2022-11-16T08:27:43.583Z,99060.00
2022-11-16T08:28:50.943Z,99059.66
2022-11-16T08:30:00.670Z,99051.75
2022-11-16T08:31:21.134Z,99055.94
2022-11-16T08:32:29.771Z,99058.09
2022-11-16T08:33:31.397Z,99056.09
2022-11-16T08:34:36.459Z,99049.03
2022-11-16T08:35:57.246Z,99058.75
2022-11-16T08:37:01.877Z,99060.13
2022-11-16T08:38:12.292Z,99063.28
2022-11-16T08:39:14.374Z,99060.34
2022-11-16T08:40:18.224Z,99069.13
2022-11-16T08:41:22.540Z,99069.50
2022-11-16T08:42:25.568Z,99065.72
2022-11-16T08:43:31.051Z,99067.88
2022-11-16T08:44:32.544Z,99059.34
2022-11-16T08:45:38.164Z,99065.94
2022-11-16T08:46:49.649Z,99061.66
2022-11-16T08:48:12.895Z,99068.16
2022-11-16T08:49:16.933Z,99062.72
2022-11-16T08:50:18.804Z,99074.97
2022-11-16T08:51:23.339Z,99079.13
2022-11-16T08:52:33.760Z,99066.03
2022-11-16T08:54:04.148Z,99082.72
2022-11-16T08:55:32.442Z,99076.44
2022-11-16T08:56:41.642Z,99083.06
2022-11-16T08:57:47.176Z,99084.72
2022-11-16T08:58:58.171Z,99078.47
2022-11-16T09:00:00.650Z,99082.59
2022-11-16T09:01:10.914Z,99090.06
2022-11-16T09:02:15.505Z,99085.28
2022-11-16T09:03:17.906Z,99082.13
2022-11-16T09:04:31.512Z,99082.13
2022-11-16T09:05:38.344Z,99080.31
2022-11-16T09:06:39.831Z,99082.13
2022-11-16T09:07:43.427Z,99083.59
2022-11-16T09:08:46.102Z,99082.13
2022-11-16T09:09:47.769Z,99077.13
2022-11-16T09:11:03.936Z,99082.25
2022-11-16T09:12:05.738Z,99081.31
2022-11-16T09:13:10.030Z,99070.91
2022-11-16T09:14:11.648Z,99070.41
2022-11-16T09:15:16.356Z,99077.34
2022-11-16T09:16:17.908Z,99074.03
2022-11-16T09:17:34.794Z,99062.59
2022-11-16T09:18:39.553Z,99064.78
2022-11-16T09:19:41.048Z,99064.25
2022-11-16T09:22:02.609Z,99070.91
2022-11-16T09:23:07.200Z,99066.56
2022-11-16T09:24:11.070Z,99064.91
2022-11-16T09:25:12.682Z,99072.19
2022-11-16T09:26:14.569Z,99078.31
2022-11-16T09:27:16.882Z,99074.03
2022-11-16T09:28:18.654Z,99077.00
2022-11-16T09:29:20.288Z,99075.69
2022-11-16T09:30:49.869Z,99078.50
2022-11-16T09:32:00.103Z,99077.78
2022-11-16T09:33:01.691Z,99073.94
2022-11-16T09:34:03.463Z,99082.66
2022-11-16T09:35:10.561Z,99078.16
2022-11-16T09:36:12.055Z,99076.78
2022-11-16T09:37:16.108Z,99077.50
2022-11-16T09:38:24.160Z,99070.41
2022-11-16T09:39:41.625Z,99075.59
2022-11-16T09:40:44.846Z,99077.88
2022-11-16T09:41:55.511Z,99072.38
2022-11-16T09:43:03.384Z,99070.88
2022-11-16T09:44:04.837Z,99079.09
2022-11-16T09:45:08.461Z,99069.03
2022-11-16T09:46:28.867Z,99080.44
2022-11-16T09:47:46.050Z,99086.84
2022-11-16T09:48:47.570Z,99074.13
2022-11-16T09:51:17.214Z,99084.91
2022-11-16T09:52:40.127Z,99089.06
2022-11-16T09:54:01.997Z,99091.16
2022-11-16T09:55:19.806Z,99084.22
2022-11-16T09:56:35.346Z,99088.66
2022-11-16T09:57:38.548Z,99093.00
2022-11-16T09:58:44.315Z,99096.50
2022-11-16T09:59:58.915Z,99093.84
2022-11-16T10:01:06.409Z,99086.56
2022-11-16T10:02:26.645Z,99094.66
2022-11-16T10:03:28.850Z,99097.13
2022-11-16T10:04:57.737Z,99090.53
2022-11-16T10:06:06.227Z,99095.00
2022-11-16T10:07:26.874Z,99096.13
2022-11-16T10:08:34.951Z,99094.66
2022-11-16T10:09:46.626Z,99088.50
2022-11-16T10:11:13.318Z,99097.41
2022-11-16T10:12:20.422Z,99086.84
2022-11-16T10:13:34.144Z,99077.59
2022-11-16T10:14:42.741Z,99081.06
2022-11-16T10:16:05.345Z,99078.94
2022-11-16T10:17:14.730Z,99076.63
2022-11-16T10:18:21.346Z,99071.00
2022-11-16T10:19:34.884Z,99075.34
2022-11-16T10:20:57.505Z,99074.19
2022-11-16T10:22:03.618Z,99074.03
2022-11-16T10:23:20.205Z,99071.75
2022-11-16T10:24:51.091Z,99065.13
2022-11-16T10:25:55.583Z,99064.13
2022-11-16T10:27:20.753Z,99062.97
2022-11-16T10:28:42.615Z,99062.13
2022-11-16T10:30:14.218Z,99070.72
2022-11-16T10:31:18.794Z,99065.13
2022-11-16T10:32:29.827Z,99053.50
2022-11-16T10:33:42.350Z,99058.78
2022-11-16T10:35:02.777Z,99055.00
2022-11-16T10:36:19.405Z,99059.66
2022-11-16T10:37:21.304Z,99058.22
2022-11-16T10:38:25.652Z,99057.94
2022-11-16T10:39:27.506Z,99056.63
2022-11-16T10:40:41.324Z,99051.31
2022-11-16T10:41:45.571Z,99051.66
2022-11-16T10:42:48.871Z,99048.56
2022-11-16T10:43:50.323Z,99055.00
2022-11-16T10:45:15.176Z,99037.00
2022-11-16T10:46:22.280Z,99040.59
2022-11-16T10:49:00.813Z,99042.25
2022-11-16T10:50:48.748Z,99039.44
2022-11-16T10:51:56.371Z,99036.78
2022-11-16T10:53:01.697Z,99034.47
2022-11-16T10:54:04.612Z,99031.50
2022-11-16T10:55:07.817Z,99041.09
2022-11-16T10:56:32.472Z,99038.78
2022-11-16T10:57:52.736Z,99035.50
2022-11-16T10:58:58.462Z,99037.84
2022-11-16T11:00:03.376Z,99034.56
2022-11-16T11:01:04.984Z,99031.25
2022-11-16T11:02:25.025Z,99027.81
2022-11-16T11:03:30.201Z,99028.13
2022-11-16T11:06:13.861Z,99029.16
2022-11-16T11:07:36.615Z,99029.00
2022-11-16T11:08:41.874Z,99021.22
2022-11-16T11:09:43.632Z,99017.94
2022-11-16T11:10:53.076Z,99013.28
2022-11-16T11:12:35.948Z,99019.06
2022-11-16T11:13:38.081Z,99022.72
2022-11-16T11:14:42.531Z,99016.91
2022-11-16T11:15:44.577Z,99024.72
2022-11-16T11:16:52.678Z,99016.94
2022-11-16T11:18:14.410Z,99020.72
2022-11-16T11:19:28.482Z,99023.22
2022-11-16T11:20:31.631Z,99015.78
2022-11-16T11:21:38.514Z,99020.59
2022-11-16T11:22:53.325Z,99022.22
2022-11-16T11:24:10.883Z,99019.91
2022-11-16T11:25:22.111Z,99022.22
2022-11-16T11:26:36.177Z,99019.91
2022-11-16T11:27:38.349Z,99016.47
2022-11-16T11:28:44.752Z,99021.75
2022-11-16T11:29:47.191Z,99013.31
2022-11-16T11:31:07.119Z,99015.44
2022-11-16T11:32:13.479Z,99006.84
2022-11-16T11:33:15.347Z,99016.47
2022-11-16T11:34:27.659Z,99009.16
2022-11-16T11:36:09.677Z,99016.94
2022-11-16T11:37:31.146Z,99011.31
2022-11-16T11:38:33.336Z,99015.44
2022-11-16T11:39:37.627Z,99009.16
2022-11-16T11:40:41.306Z,99016.75
2022-11-16T11:41:43.241Z,99014.63
2022-11-16T11:42:54.951Z,99024.19
2022-11-16T11:44:05.870Z,99019.09
2022-11-16T11:45:07.915Z,99015.25
2022-11-16T11:46:16.510Z,99015.75
2022-11-16T11:49:01.554Z,99007.16
2022-11-16T11:50:22.140Z,99002.06
2022-11-16T11:51:40.575Z,98999.56
2022-11-16T11:53:05.253Z,99015.59
2022-11-16T11:54:07.054Z,99008.47
2022-11-16T11:55:08.773Z,99004.69
2022-11-16T11:56:10.517Z,98994.13
2022-11-16T11:57:12.731Z,98999.88
2022-11-16T11:58:22.552Z,98993.28
2022-11-16T11:59:33.167Z,98990.78
2022-11-16T12:00:37.462Z,98995.75
2022-11-16T12:01:57.749Z,98993.44
2022-11-16T12:03:17.840Z,98999.19
2022-11-16T12:04:21.349Z,98990.09
2022-11-16T12:05:40.957Z,98979.66
2022-11-16T12:06:44.068Z,98983.97
2022-11-16T12:07:49.820Z,98983.28
2022-11-16T12:09:07.378Z,98987.25
2022-11-16T12:10:28.625Z,98990.69
2022-11-16T12:11:52.241Z,98979.44
2022-11-16T12:13:02.441Z,98980.09
2022-11-16T12:14:07.815Z,98969.34
2022-11-16T12:15:24.354Z,98979.22
2022-11-16T12:16:42.450Z,98975.41
2022-11-16T12:17:55.272Z,98975.06
2022-11-16T12:18:59.285Z,98972.25
2022-11-16T12:20:21.653Z,98973.44
2022-11-16T12:21:42.166Z,98960.66
2022-11-16T12:22:46.680Z,98965.28
2022-11-16T12:24:09.430Z,98969.91
2022-11-16T12:25:10.921Z,98971.41
2022-11-16T12:26:28.436Z,98962.75
2022-11-16T12:27:41.339Z,98962.56
2022-11-16T12:28:44.981Z,98965.88
2022-11-16T12:29:55.904Z,98964.38
2022-11-16T12:31:23.511Z,98963.06
2022-11-16T12:32:30.991Z,98963.22
2022-11-16T12:33:51.360Z,98970.50
2022-11-16T12:35:31.255Z,98967.53
2022-11-16T12:36:38.674Z,98960.25
2022-11-16T12:39:09.817Z,98953.94
2022-11-16T12:40:33.817Z,98956.88
2022-11-16T12:41:35.932Z,98957.22
2022-11-16T12:43:00.559Z,98954.91
2022-11-16T12:44:12.565Z,98948.22
2022-11-16T12:45:30.559Z,98947.91
2022-11-16T12:46:55.608Z,98948.09
2022-11-16T12:48:03.115Z,98943.13
2022-11-16T12:49:16.516Z,98941.31
2022-11-16T12:50:37.462Z,98944.59
2022-11-16T12:51:45.362Z,98937.91
2022-11-16T12:53:03.535Z,98936.25
2022-11-16T12:54:11.671Z,98937.91
2022-11-16T12:55:32.011Z,98930.63
2022-11-16T12:56:49.064Z,98932.00
2022-11-16T12:58:04.874Z,98930.19
2022-11-16T12:59:06.902Z,98928.88
2022-11-16T13:00:08.565Z,98920.41
2022-11-16T13:01:29.958Z,98929.03
2022-11-16T13:02:43.711Z,98925.69
2022-11-16T13:03:49.872Z,98913.06
2022-11-16T13:05:12.850Z,98927.28
2022-11-16T13:06:21.215Z,98926.72
2022-11-16T13:07:29.152Z,98922.56
2022-11-16T13:08:40.071Z,98926.19
2022-11-16T13:09:48.748Z,98917.88
2022-11-16T13:10:50.791Z,98917.69
2022-11-16T13:11:52.926Z,98918.16
2022-11-16T13:13:22.004Z,98922.63
2022-11-16T13:14:22.140Z,98916.63
2022-11-16T13:15:24.960Z,98916.78
2022-11-16T13:16:27.012Z,98917.34
2022-11-16T13:17:36.798Z,98914.16
2022-11-16T13:20:23.725Z,98906.31
2022-11-16T13:21:46.334Z,98905.84
2022-11-16T13:23:17.145Z,98901.50
2022-11-16T13:24:37.998Z,98901.50
2022-11-16T13:25:48.181Z,98907.97
2022-11-16T13:27:05.490Z,98904.84
2022-11-16T13:28:13.044Z,98902.31
2022-11-16T13:29:17.118Z,98904.84
2022-11-16T13:30:22.307Z,98903.66
2022-11-16T13:31:23.739Z,98901.66
2022-11-16T13:32:37.563Z,98900.03
2022-11-16T13:33:50.653Z,98902.31
2022-11-16T13:34:52.662Z,98898.69
2022-11-16T13:35:54.856Z,98900.22
2022-11-16T13:37:01.520Z,98898.56
2022-11-16T13:38:02.986Z,98902.06
2022-11-16T13:39:23.293Z,98893.63
2022-11-16T13:40:27.421Z,98889.16
2022-11-16T13:41:36.390Z,98890.69
2022-11-16T13:43:14.085Z,98888.19
2022-11-16T13:44:21.251Z,98889.69
2022-11-16T13:45:23.859Z,98891.69
2022-11-16T13:46:57.673Z,98888.41
2022-11-16T13:47:58.202Z,98894.38
2022-11-16T13:48:59.682Z,98893.91
2022-11-16T13:50:01.803Z,98891.44
2022-11-16T13:51:04.559Z,98895.75